Broad Blunsdon, United Kingdom
Current Conditions -  °F | °C
As of 5:48 AM on Wednesday 22 Oct 2014 (Local Time) from EGVA Reporting Station
Overcast Overcast  
Wind Chill: 37°   Ceiling: 4900
Heat Index: 43°   Visibility: 6mi
Dew Point: 39°   Wind: 9mph
Humidity: 87%   Direction: 210°SSW
Pressure: 30.25"   Gusts: NA
Location:  51.61°N, 1.78°W
Report Text: EGVA 220448Z AUTO 21008KT 9999 OVC049 06/04 A3025 RMK AO2
Loading
Personal Weather Stations






























Interactive Weather Map New forecast layout! Learn more

10-Day Weather Forecast

Advertisements
Track Severe Weather on mobile